createdAt,value
2018-03-27T00:00:46.362Z,1.79
2018-03-27T00:01:46.356Z,1.82
2018-03-27T00:02:46.340Z,1.89
2018-03-27T00:03:46.338Z,1.90
2018-03-27T00:04:46.328Z,1.97
2018-03-27T00:05:46.320Z,2.12
2018-03-27T00:06:46.315Z,1.91
2018-03-27T00:07:46.318Z,2.09
2018-03-27T00:08:46.301Z,2.01
2018-03-27T00:09:46.297Z,1.98
2018-03-27T00:10:46.293Z,2.02
2018-03-27T00:11:46.290Z,2.08
2018-03-27T00:12:46.282Z,2.04
2018-03-27T00:13:46.279Z,2.08
2018-03-27T00:14:46.277Z,2.02
2018-03-27T00:15:46.265Z,2.10
2018-03-27T00:16:46.254Z,2.08
2018-03-27T00:17:46.248Z,1.94
2018-03-27T00:18:46.245Z,1.87
2018-03-27T00:19:46.247Z,1.89
2018-03-27T00:20:46.245Z,1.78
2018-03-27T00:21:46.229Z,1.78
2018-03-27T00:22:46.220Z,1.68
2018-03-27T00:23:46.217Z,1.68
2018-03-27T00:24:46.207Z,1.61
2018-03-27T00:25:46.205Z,1.54
2018-03-27T00:26:46.196Z,1.55
2018-03-27T00:27:46.195Z,1.55
2018-03-27T00:28:46.195Z,1.54
2018-03-27T00:29:46.179Z,1.54
2018-03-27T00:30:46.171Z,1.54
2018-03-27T00:31:46.167Z,1.44
2018-03-27T00:32:46.158Z,1.46
2018-03-27T00:33:46.152Z,1.46
2018-03-27T00:34:46.145Z,1.43
2018-03-27T00:35:46.141Z,1.40
2018-03-27T00:36:46.130Z,1.28
2018-03-27T00:37:46.126Z,1.36
2018-03-27T00:38:46.120Z,1.29
2018-03-27T00:39:46.125Z,1.33
2018-03-27T00:40:46.108Z,1.36
2018-03-27T00:41:46.104Z,1.25
2018-03-27T00:42:46.097Z,1.28
2018-03-27T00:43:46.106Z,1.19
2018-03-27T00:44:46.085Z,1.18
2018-03-27T00:45:46.076Z,1.08
2018-03-27T00:46:46.079Z,1.16
2018-03-27T00:47:46.064Z,1.14
2018-03-27T00:48:46.056Z,1.16
2018-03-27T00:49:46.096Z,1.16
2018-03-27T00:50:46.046Z,1.10
2018-03-27T00:51:46.036Z,1.04
2018-03-27T00:52:46.029Z,1.07
2018-03-27T00:53:46.024Z,1.04
2018-03-27T00:54:46.019Z,1.00
2018-03-27T00:55:46.012Z,0.96
2018-03-27T00:56:46.006Z,1.00
2018-03-27T00:57:46.016Z,1.03
2018-03-27T00:58:45.994Z,1.04
2018-03-27T00:59:45.985Z,0.94
2018-03-27T01:00:45.977Z,0.92
2018-03-27T01:01:45.972Z,0.90
2018-03-27T01:02:45.963Z,0.89
2018-03-27T01:03:45.962Z,0.89
2018-03-27T01:04:45.952Z,0.85
2018-03-27T01:05:45.946Z,0.82
2018-03-27T01:06:45.939Z,0.68
2018-03-27T01:07:45.934Z,0.80
2018-03-27T01:08:45.923Z,0.72
2018-03-27T01:09:45.931Z,0.70
2018-03-27T01:10:45.913Z,0.67
2018-03-27T01:11:45.912Z,0.68
2018-03-27T01:12:45.903Z,0.70
2018-03-27T01:13:45.892Z,0.53
2018-03-27T01:14:45.883Z,0.53
2018-03-27T01:15:45.878Z,0.53
2018-03-27T01:16:45.875Z,0.41
2018-03-27T01:17:45.869Z,0.41
2018-03-27T01:18:45.858Z,0.31
2018-03-27T01:19:45.854Z,0.21
2018-03-27T01:20:45.844Z,0.20
2018-03-27T01:21:45.834Z,0.23
2018-03-27T01:22:45.827Z,0.15
2018-03-27T01:23:45.830Z,0.21
2018-03-27T01:24:45.826Z,0.16
2018-03-27T01:25:45.825Z,0.20
2018-03-27T01:26:45.798Z,0.24
2018-03-27T01:27:45.796Z,0.25
2018-03-27T01:28:45.786Z,0.24
2018-03-27T01:29:45.778Z,0.16
2018-03-27T01:30:45.772Z,0.12
2018-03-27T01:31:45.765Z,0.06
2018-03-27T01:32:45.761Z,0.07
2018-03-27T01:33:45.750Z,0.00
2018-03-27T01:34:45.744Z,0.05
2018-03-27T01:35:45.756Z,0.02
2018-03-27T01:36:45.728Z,0.07
2018-03-27T01:37:45.721Z,0.06
2018-03-27T01:38:45.714Z,0.00
2018-03-27T01:39:45.706Z,0.03
2018-03-27T01:40:45.700Z,0.10
2018-03-27T01:41:45.693Z,0.10
2018-03-27T01:42:45.691Z,0.13
2018-03-27T01:43:45.677Z,0.15
2018-03-27T01:44:45.668Z,0.18
2018-03-27T01:45:45.662Z,0.12
2018-03-27T01:46:45.656Z,0.15
2018-03-27T01:47:45.653Z,0.15
2018-03-27T01:48:45.643Z,0.20
2018-03-27T01:49:45.634Z,0.24
2018-03-27T01:50:45.640Z,0.15
2018-03-27T01:51:45.619Z,0.10
2018-03-27T01:52:45.611Z,0.12
2018-03-27T01:53:45.606Z,0.09
2018-03-27T01:54:45.594Z,0.24
2018-03-27T01:55:45.596Z,0.24
2018-03-27T01:56:45.583Z,0.21
2018-03-27T01:57:45.582Z,0.13
2018-03-27T01:58:45.567Z,0.25
2018-03-27T01:59:45.563Z,0.25
2018-03-27T02:00:45.568Z,0.31
2018-03-27T02:01:45.564Z,0.33
2018-03-27T02:02:45.557Z,0.31
2018-03-27T02:03:45.559Z,0.38
2018-03-27T02:04:45.522Z,0.36
2018-03-27T02:05:45.515Z,0.39
2018-03-27T02:06:45.514Z,0.42
2018-03-27T02:07:45.504Z,0.39
2018-03-27T02:08:45.494Z,0.43
2018-03-27T02:09:45.485Z,0.31
2018-03-27T02:10:45.480Z,0.31
2018-03-27T02:11:45.470Z,0.31
2018-03-27T02:12:45.464Z,0.31
2018-03-27T02:13:45.457Z,0.33
2018-03-27T02:14:45.451Z,0.33
2018-03-27T02:15:45.441Z,0.34
2018-03-27T02:16:45.435Z,0.39
2018-03-27T02:17:45.425Z,0.41
2018-03-27T02:18:45.420Z,0.30
2018-03-27T02:19:45.427Z,0.33
2018-03-27T02:20:45.407Z,0.39
2018-03-27T02:21:45.398Z,0.24
2018-03-27T02:22:45.392Z,0.24
2018-03-27T02:23:45.385Z,0.38
2018-03-27T02:24:45.378Z,0.38
2018-03-27T02:25:45.368Z,0.28
2018-03-27T02:26:45.361Z,0.33
2018-03-27T02:27:45.354Z,0.27
2018-03-27T02:28:45.345Z,0.24
2018-03-27T02:29:45.346Z,0.27
2018-03-27T02:30:45.333Z,0.36
2018-03-27T02:31:45.329Z,0.33
2018-03-27T02:32:45.324Z,0.20
2018-03-27T02:33:45.311Z,0.15
2018-03-27T02:34:45.321Z,0.10
2018-03-27T02:35:45.298Z,0.05
2018-03-27T02:36:45.293Z,0.05
2018-03-27T02:37:45.282Z,0.02
2018-03-27T02:38:45.272Z,-0.01
2018-03-27T02:39:45.271Z,-0.04
2018-03-27T02:40:45.265Z,-0.05
2018-03-27T02:41:45.254Z,-0.09
2018-03-27T02:42:45.253Z,-0.11
2018-03-27T02:43:45.239Z,-0.11
2018-03-27T02:44:45.232Z,-0.16
2018-03-27T02:45:45.226Z,-0.13
2018-03-27T02:46:45.218Z,-0.09
2018-03-27T02:47:45.211Z,-0.09
2018-03-27T02:48:45.211Z,-0.01
2018-03-27T02:49:45.194Z,-0.09
2018-03-27T02:50:45.186Z,0.02
2018-03-27T02:51:45.180Z,0.07
2018-03-27T02:52:45.169Z,-0.01
2018-03-27T02:53:45.164Z,0.02
2018-03-27T02:54:45.159Z,0.00
2018-03-27T02:55:45.150Z,0.09
2018-03-27T02:56:45.142Z,0.05
2018-03-27T02:57:45.141Z,-0.01
2018-03-27T02:58:45.132Z,-0.11
2018-03-27T02:59:45.131Z,-0.11
2018-03-27T03:00:45.110Z,-0.11
2018-03-27T03:01:45.105Z,-0.18
2018-03-27T03:02:45.104Z,-0.24
2018-03-27T03:03:45.089Z,-0.22
2018-03-27T03:04:45.082Z,-0.27
2018-03-27T03:05:45.084Z,-0.36
2018-03-27T03:06:45.068Z,-0.33
2018-03-27T03:07:45.061Z,-0.31
2018-03-27T03:08:45.053Z,-0.31
2018-03-27T03:09:45.046Z,-0.33
2018-03-27T03:10:45.035Z,-0.27
2018-03-27T03:11:45.027Z,-0.29
2018-03-27T03:12:45.019Z,-0.26
2018-03-27T03:13:45.013Z,-0.27
2018-03-27T03:14:45.005Z,-0.18
2018-03-27T03:15:44.998Z,-0.22
2018-03-27T03:16:44.991Z,-0.23
2018-03-27T03:17:44.984Z,-0.33
2018-03-27T03:18:44.977Z,-0.34
2018-03-27T03:19:44.968Z,-0.31
2018-03-27T03:20:44.958Z,-0.33
2018-03-27T03:21:44.957Z,-0.33
2018-03-27T03:22:44.944Z,-0.33
2018-03-27T03:23:44.938Z,-0.37
2018-03-27T03:24:44.926Z,-0.33
2018-03-27T03:25:44.922Z,-0.33
2018-03-27T03:26:44.912Z,-0.30
2018-03-27T03:27:44.905Z,-0.30
2018-03-27T03:28:44.900Z,-0.23
2018-03-27T03:29:44.889Z,-0.26
2018-03-27T03:30:44.887Z,-0.30
2018-03-27T03:31:44.888Z,-0.36
2018-03-27T03:32:44.871Z,-0.30
2018-03-27T03:33:44.859Z,-0.31
2018-03-27T03:34:44.854Z,-0.29
2018-03-27T03:35:44.848Z,-0.26
2018-03-27T03:36:44.841Z,-0.30
2018-03-27T03:37:44.828Z,-0.36
2018-03-27T03:38:44.821Z,-0.31
2018-03-27T03:39:44.814Z,-0.34
2018-03-27T03:40:44.807Z,-0.30
2018-03-27T03:41:44.798Z,-0.31
2018-03-27T03:42:44.790Z,-0.27
2018-03-27T03:43:44.787Z,-0.29
2018-03-27T03:44:44.776Z,-0.27
2018-03-27T03:45:44.767Z,-0.37
2018-03-27T03:46:44.761Z,-0.42
2018-03-27T03:47:44.753Z,-0.36
2018-03-27T03:48:44.756Z,-0.51
2018-03-27T03:49:44.738Z,-0.42
2018-03-27T03:50:44.759Z,-0.39
2018-03-27T03:51:44.723Z,-0.39
2018-03-27T03:52:44.716Z,-0.45
2018-03-27T03:53:44.723Z,-0.36
2018-03-27T03:54:44.703Z,-0.39
2018-03-27T03:55:44.693Z,-0.31
2018-03-27T03:56:44.686Z,-0.36
2018-03-27T03:57:44.675Z,-0.37
2018-03-27T03:58:44.668Z,-0.29
2018-03-27T03:59:44.661Z,-0.27
2018-03-27T04:00:44.662Z,-0.39
2018-03-27T04:01:44.642Z,-0.36
2018-03-27T04:02:44.637Z,-0.41
2018-03-27T04:03:44.630Z,-0.41
2018-03-27T04:04:44.624Z,-0.47
2018-03-27T04:05:44.614Z,-0.45
2018-03-27T04:06:44.613Z,-0.39
2018-03-27T04:07:44.615Z,-0.44
2018-03-27T04:08:44.598Z,-0.45
2018-03-27T04:09:44.593Z,-0.42
2018-03-27T04:10:44.574Z,-0.44
2018-03-27T04:11:44.568Z,-0.47
2018-03-27T04:12:44.559Z,-0.45
2018-03-27T04:13:44.549Z,-0.47
2018-03-27T04:14:44.546Z,-0.45
2018-03-27T04:15:44.550Z,-0.42
2018-03-27T04:16:44.527Z,-0.37
2018-03-27T04:17:44.532Z,-0.45
2018-03-27T04:18:44.533Z,-0.42
2018-03-27T04:19:44.517Z,-0.34
2018-03-27T04:21:20.232Z,-0.29
2018-03-27T04:22:20.190Z,-0.33
2018-03-27T04:24:14.616Z,-0.22
2018-03-27T04:25:14.552Z,-0.23
2018-03-27T04:27:09.894Z,-0.18
2018-03-27T04:28:09.854Z,-0.26
2018-03-27T04:30:04.258Z,-0.18
2018-03-27T04:31:04.224Z,-0.09
2018-03-27T04:32:59.595Z,-0.12
2018-03-27T04:34:00.152Z,-0.04
2018-03-27T04:35:52.945Z,-0.05
2018-03-27T04:36:52.922Z,-0.04
2018-03-27T04:38:47.314Z,-0.05
2018-03-27T04:39:47.288Z,-0.05
2018-03-27T04:41:41.629Z,-0.09
2018-03-27T04:42:41.607Z,-0.04
2018-03-27T04:44:36.021Z,-0.08
2018-03-27T04:45:36.017Z,-0.09
2018-03-27T04:46:36.013Z,-0.04
2018-03-27T04:47:35.942Z,0.02
2018-03-27T04:48:35.919Z,0.00
2018-03-27T04:49:35.912Z,0.00
2018-03-27T04:50:35.934Z,-0.05
2018-03-27T04:51:35.907Z,0.02
2018-03-27T04:52:35.903Z,-0.01
2018-03-27T04:53:35.885Z,0.00
2018-03-27T04:54:35.876Z,0.05
2018-03-27T04:55:35.875Z,0.02
2018-03-27T04:56:35.861Z,0.02
2018-03-27T04:57:35.854Z,0.05
2018-03-27T04:58:35.866Z,0.07
2018-03-27T04:59:35.853Z,0.10
2018-03-27T05:00:35.830Z,0.09
2018-03-27T05:01:35.823Z,0.07
2018-03-27T05:02:35.819Z,0.06
2018-03-27T05:03:35.816Z,0.10
2018-03-27T05:04:35.803Z,0.12
2018-03-27T05:05:35.796Z,0.16
2018-03-27T05:06:35.797Z,0.15
2018-03-27T05:07:35.786Z,0.20
2018-03-27T05:08:36.518Z,0.18
2018-03-27T05:09:35.764Z,0.20
2018-03-27T05:10:35.759Z,0.27
2018-03-27T05:11:35.753Z,0.15
2018-03-27T05:12:35.742Z,0.24
2018-03-27T05:13:35.737Z,0.21
2018-03-27T05:14:35.728Z,0.30
2018-03-27T05:15:35.720Z,0.21
2018-03-27T05:16:36.517Z,0.20
2018-03-27T05:17:35.704Z,0.31
2018-03-27T05:18:35.704Z,0.24
2018-03-27T05:19:35.693Z,0.38
2018-03-27T05:20:35.683Z,0.30
2018-03-27T05:21:35.675Z,0.27
2018-03-27T05:22:35.678Z,0.33
2018-03-27T05:23:35.663Z,0.39
2018-03-27T05:24:35.651Z,0.42
2018-03-27T05:25:35.646Z,0.46
2018-03-27T05:26:35.643Z,0.45
2018-03-27T05:27:35.630Z,0.45
2018-03-27T05:28:35.625Z,0.51
2018-03-27T05:29:35.619Z,0.45
2018-03-27T05:30:35.608Z,0.48
2018-03-27T05:31:35.606Z,0.51
2018-03-27T05:32:35.596Z,0.58
2018-03-27T05:33:35.592Z,0.51
2018-03-27T05:34:35.585Z,0.49
2018-03-27T05:35:35.579Z,0.60
2018-03-27T05:36:36.534Z,0.49
2018-03-27T05:37:35.561Z,0.57
2018-03-27T05:38:35.557Z,0.71
2018-03-27T05:39:35.546Z,0.67
2018-03-27T05:40:35.547Z,0.70
2018-03-27T05:41:35.530Z,0.67
2018-03-27T05:42:35.525Z,0.61
2018-03-27T05:43:35.519Z,0.62
2018-03-27T05:44:35.516Z,0.71
2018-03-27T05:45:35.504Z,0.71
2018-03-27T05:46:35.534Z,0.67
2018-03-27T05:47:35.493Z,0.68
2018-03-27T05:48:35.482Z,0.67
2018-03-27T05:49:35.479Z,0.72
2018-03-27T05:50:35.473Z,0.78
2018-03-27T05:51:35.461Z,0.83
2018-03-27T05:52:35.455Z,0.83
2018-03-27T05:53:35.449Z,0.92
2018-03-27T05:54:35.441Z,0.90
2018-03-27T05:55:35.437Z,0.98
2018-03-27T05:56:35.427Z,0.89
2018-03-27T05:57:35.422Z,1.00
2018-03-27T05:58:35.415Z,1.03
2018-03-27T05:59:35.405Z,1.01
2018-03-27T06:00:35.398Z,1.07
2018-03-27T06:01:35.393Z,1.07
2018-03-27T06:02:35.386Z,1.08
2018-03-27T06:03:35.381Z,1.15
2018-03-27T06:04:35.379Z,1.15
2018-03-27T06:05:35.364Z,1.12
2018-03-27T06:06:35.359Z,1.10
2018-03-27T06:07:35.351Z,1.14
2018-03-27T06:08:35.345Z,1.10
2018-03-27T06:09:35.338Z,1.15
2018-03-27T06:10:35.347Z,1.10
2018-03-27T06:11:35.327Z,1.07
2018-03-27T06:12:35.319Z,1.22
2018-03-27T06:13:35.331Z,1.15
2018-03-27T06:14:35.304Z,1.14
2018-03-27T06:15:35.297Z,1.15
2018-03-27T06:16:35.292Z,1.10
2018-03-27T06:17:35.285Z,1.06
2018-03-27T06:18:35.279Z,1.12
2018-03-27T06:19:35.269Z,1.15
2018-03-27T06:20:35.265Z,1.19
2018-03-27T06:21:35.257Z,1.19
2018-03-27T06:22:35.254Z,1.25
2018-03-27T06:23:35.244Z,1.22
2018-03-27T06:24:35.239Z,1.19
2018-03-27T06:25:35.232Z,1.22
2018-03-27T06:26:35.223Z,1.16
2018-03-27T06:27:35.218Z,1.24
2018-03-27T06:28:35.210Z,1.15
2018-03-27T06:29:35.205Z,1.16
2018-03-27T06:30:35.196Z,1.16
2018-03-27T06:31:35.191Z,1.10
2018-03-27T06:32:35.185Z,1.19
2018-03-27T06:33:35.177Z,1.24
2018-03-27T06:34:35.172Z,1.24
2018-03-27T06:35:35.168Z,1.32
2018-03-27T06:36:35.157Z,1.29
2018-03-27T06:37:35.156Z,1.36
2018-03-27T06:38:35.146Z,1.42
2018-03-27T06:39:35.138Z,1.47
2018-03-27T06:40:35.132Z,1.58
2018-03-27T06:41:35.126Z,1.57
2018-03-27T06:42:35.119Z,1.54
2018-03-27T06:43:35.114Z,1.69
2018-03-27T06:44:35.104Z,1.79
2018-03-27T06:45:35.102Z,1.91
2018-03-27T06:46:35.097Z,2.04
2018-03-27T06:47:35.124Z,2.02
2018-03-27T06:48:35.085Z,2.04
2018-03-27T06:49:35.077Z,2.20
2018-03-27T06:50:35.077Z,2.28
2018-03-27T06:51:35.065Z,2.55
2018-03-27T06:52:35.056Z,2.51
2018-03-27T06:53:35.051Z,2.64
2018-03-27T06:54:35.051Z,2.69
2018-03-27T06:55:35.039Z,2.76
2018-03-27T06:56:35.032Z,2.85
2018-03-27T06:57:35.029Z,2.87
2018-03-27T06:58:35.030Z,2.77
2018-03-27T06:59:35.017Z,2.71
2018-03-27T07:00:35.016Z,2.52
2018-03-27T07:01:35.010Z,2.46
2018-03-27T07:02:35.027Z,2.48
2018-03-27T07:03:35.026Z,2.46
2018-03-27T07:04:34.988Z,2.46
2018-03-27T07:05:35.060Z,2.46
2018-03-27T07:06:34.982Z,2.46
2018-03-27T07:07:35.005Z,2.59
2018-03-27T07:08:34.970Z,2.64
2018-03-27T07:09:34.965Z,2.81
2018-03-27T07:10:35.064Z,2.77
2018-03-27T07:11:34.952Z,2.89
2018-03-27T07:12:34.990Z,3.00
2018-03-27T07:13:34.942Z,3.07
2018-03-27T07:14:34.937Z,3.18
2018-03-27T07:15:34.958Z,3.13
2018-03-27T07:16:34.924Z,3.15
2018-03-27T07:17:34.962Z,3.18
2018-03-27T07:18:34.928Z,3.13
2018-03-27T07:19:34.937Z,3.12
2018-03-27T07:20:34.937Z,3.13
2018-03-27T07:21:34.918Z,3.30
2018-03-27T07:22:34.900Z,3.30
2018-03-27T07:23:34.893Z,3.44
2018-03-27T07:24:34.892Z,3.44
2018-03-27T07:25:34.880Z,3.62
2018-03-27T07:26:35.228Z,3.75
2018-03-27T07:27:34.873Z,4.01
2018-03-27T07:28:34.977Z,4.03
2018-03-27T07:29:34.863Z,3.90
2018-03-27T07:30:34.926Z,3.88
2018-03-27T07:31:34.853Z,3.78
2018-03-27T07:32:34.851Z,3.79
2018-03-27T07:33:34.845Z,3.80
2018-03-27T07:34:34.843Z,3.79
2018-03-27T07:35:34.834Z,3.75
2018-03-27T07:36:34.828Z,3.80
2018-03-27T07:37:34.825Z,3.88
2018-03-27T07:38:34.826Z,3.92
2018-03-27T07:39:34.815Z,3.92
2018-03-27T07:40:34.847Z,3.90
2018-03-27T07:41:34.811Z,3.98
2018-03-27T07:42:34.807Z,3.96
2018-03-27T07:43:34.801Z,3.96
2018-03-27T07:44:34.793Z,3.90
2018-03-27T07:45:34.795Z,3.94
2018-03-27T07:46:34.788Z,4.00
2018-03-27T07:47:34.785Z,3.94
2018-03-27T07:48:34.790Z,3.97
2018-03-27T07:49:34.812Z,3.96
2018-03-27T07:50:34.768Z,4.10
2018-03-27T07:51:34.774Z,4.15
2018-03-27T07:52:34.762Z,4.25
2018-03-27T07:53:34.757Z,4.39
2018-03-27T07:54:34.752Z,4.42
2018-03-27T07:55:34.753Z,4.51
2018-03-27T07:56:34.745Z,4.47
2018-03-27T07:57:34.753Z,4.67
2018-03-27T07:58:34.741Z,4.67
2018-03-27T07:59:34.751Z,4.83
2018-03-27T08:00:34.729Z,5.04
2018-03-27T08:01:34.725Z,5.50
2018-03-27T08:02:34.724Z,5.91
2018-03-27T08:03:34.745Z,6.59
2018-03-27T08:04:34.722Z,7.01
2018-03-27T08:05:34.718Z,7.26
2018-03-27T08:06:34.719Z,7.37
2018-03-27T08:07:34.717Z,7.38
2018-03-27T08:08:34.711Z,7.42
2018-03-27T08:09:34.704Z,7.55
2018-03-27T08:10:34.707Z,7.41
2018-03-27T08:11:34.701Z,7.40
2018-03-27T08:12:34.704Z,7.17
2018-03-27T08:13:34.699Z,7.08
2018-03-27T08:14:34.698Z,6.97
2018-03-27T08:15:34.698Z,6.83
2018-03-27T08:16:34.693Z,6.54
2018-03-27T08:17:34.694Z,6.54
2018-03-27T08:18:34.692Z,6.36
2018-03-27T08:19:34.689Z,6.19
2018-03-27T08:20:34.687Z,6.26
2018-03-27T08:21:34.695Z,6.30
2018-03-27T08:22:34.685Z,6.38
2018-03-27T08:23:34.686Z,6.47
2018-03-27T08:24:34.683Z,6.61
2018-03-27T08:25:34.680Z,6.73
2018-03-27T08:26:34.691Z,6.89
2018-03-27T08:27:34.680Z,6.98
2018-03-27T08:28:34.683Z,7.29
2018-03-27T08:29:34.680Z,7.56
2018-03-27T08:30:34.675Z,7.56
2018-03-27T08:31:34.681Z,7.81
2018-03-27T08:32:34.673Z,7.84
2018-03-27T08:33:34.677Z,7.84
2018-03-27T08:34:34.679Z,8.18
2018-03-27T08:35:34.674Z,8.63
2018-03-27T08:36:34.675Z,8.87
2018-03-27T08:37:34.681Z,8.71
2018-03-27T08:38:34.710Z,8.57
2018-03-27T08:39:34.683Z,8.83
2018-03-27T08:40:34.685Z,8.71
2018-03-27T08:41:34.691Z,8.63
2018-03-27T08:42:34.691Z,8.63
2018-03-27T08:43:34.692Z,8.58
2018-03-27T08:44:34.694Z,8.71
2018-03-27T08:45:34.706Z,8.50
2018-03-27T08:46:34.701Z,7.97
2018-03-27T08:47:34.701Z,8.03
2018-03-27T08:48:34.726Z,8.00
2018-03-27T08:49:34.707Z,7.96
2018-03-27T08:50:34.715Z,8.04
2018-03-27T08:51:34.709Z,7.82
2018-03-27T08:52:34.708Z,7.84
2018-03-27T08:53:34.714Z,7.82
2018-03-27T08:54:34.717Z,7.75
2018-03-27T08:55:34.714Z,7.62
2018-03-27T08:56:34.715Z,7.42
2018-03-27T08:57:34.717Z,7.35
2018-03-27T08:58:34.718Z,7.50
2018-03-27T08:59:34.766Z,7.47
2018-03-27T09:00:34.718Z,7.41
2018-03-27T09:01:34.716Z,7.44
2018-03-27T09:02:34.716Z,7.34
2018-03-27T09:03:34.784Z,7.37
2018-03-27T09:04:34.718Z,7.38
2018-03-27T09:05:34.714Z,7.41
2018-03-27T09:06:34.717Z,7.34
2018-03-27T09:07:34.716Z,7.34
2018-03-27T09:08:34.719Z,7.26
2018-03-27T09:09:34.717Z,7.16
2018-03-27T09:10:34.715Z,7.01
2018-03-27T09:11:34.713Z,6.87
2018-03-27T09:12:34.709Z,6.71
2018-03-27T09:13:34.709Z,6.58
2018-03-27T09:14:36.545Z,6.68
2018-03-27T09:15:34.708Z,6.54
2018-03-27T09:16:34.714Z,6.62
2018-03-27T09:17:34.704Z,6.65
2018-03-27T09:18:34.705Z,6.76
2018-03-27T09:19:34.703Z,6.89
2018-03-27T09:20:34.722Z,7.08
2018-03-27T09:21:34.699Z,7.26
2018-03-27T09:22:34.706Z,7.55
2018-03-27T09:23:34.720Z,7.78
2018-03-27T09:24:34.718Z,7.99
2018-03-27T09:25:34.691Z,8.18
2018-03-27T09:26:34.694Z,8.20
2018-03-27T09:27:34.691Z,8.18
2018-03-27T09:28:34.697Z,8.25
2018-03-27T09:29:34.688Z,8.15
2018-03-27T09:30:34.699Z,8.02
2018-03-27T09:31:34.716Z,7.87
2018-03-27T09:32:34.689Z,7.81
2018-03-27T09:33:34.687Z,7.69
2018-03-27T09:34:34.691Z,7.41
2018-03-27T09:35:34.694Z,7.32
2018-03-27T09:36:34.688Z,7.19
2018-03-27T09:37:34.724Z,7.05
2018-03-27T09:38:34.679Z,7.05
2018-03-27T09:39:34.690Z,6.80
2018-03-27T09:40:34.679Z,6.81
2018-03-27T09:41:34.679Z,6.69
2018-03-27T09:42:34.676Z,6.62
2018-03-27T09:43:34.673Z,6.58
2018-03-27T09:44:34.671Z,6.61
2018-03-27T09:45:34.708Z,6.69
2018-03-27T09:46:34.691Z,6.80
2018-03-27T09:47:34.678Z,6.95
2018-03-27T09:48:34.662Z,7.04
2018-03-27T09:49:34.671Z,7.08
2018-03-27T09:50:34.668Z,7.22
2018-03-27T09:51:34.659Z,7.17
2018-03-27T09:52:34.658Z,7.29
2018-03-27T09:53:34.653Z,7.37
2018-03-27T09:54:34.652Z,7.49
2018-03-27T09:55:34.661Z,7.52
2018-03-27T09:56:34.645Z,7.62
2018-03-27T09:57:34.647Z,7.77
2018-03-27T09:58:34.675Z,8.11
2018-03-27T09:59:34.647Z,8.12
2018-03-27T10:00:34.641Z,7.99
2018-03-27T10:01:34.640Z,8.02
2018-03-27T10:02:34.639Z,7.87
2018-03-27T10:03:34.637Z,7.72
2018-03-27T10:04:34.649Z,7.44
2018-03-27T10:05:34.640Z,7.49
2018-03-27T10:06:34.640Z,7.42
2018-03-27T10:07:34.630Z,7.49
2018-03-27T10:08:34.633Z,7.47
2018-03-27T10:09:34.630Z,7.72
2018-03-27T10:10:34.666Z,7.74
2018-03-27T10:11:34.632Z,7.72
2018-03-27T10:12:34.624Z,7.71
2018-03-27T10:13:34.661Z,7.74
2018-03-27T10:14:34.854Z,7.79
2018-03-27T10:15:34.620Z,7.81
2018-03-27T10:16:34.621Z,7.84
2018-03-27T10:17:34.619Z,7.85
2018-03-27T10:18:34.617Z,7.97
2018-03-27T10:19:34.620Z,7.93
2018-03-27T10:20:34.613Z,8.03
2018-03-27T10:21:34.611Z,8.02
2018-03-27T10:22:34.610Z,8.14
2018-03-27T10:23:34.612Z,8.29
2018-03-27T10:24:34.614Z,8.22
2018-03-27T10:25:34.630Z,8.28
2018-03-27T10:26:34.607Z,8.39
2018-03-27T10:27:34.604Z,8.69
2018-03-27T10:28:34.606Z,8.88
2018-03-27T10:29:34.602Z,9.39
2018-03-27T10:30:34.602Z,9.68
2018-03-27T10:31:34.601Z,9.86
2018-03-27T10:32:34.596Z,10.21
2018-03-27T10:33:34.599Z,10.43
2018-03-27T10:34:34.601Z,10.55
2018-03-27T10:35:34.612Z,10.71
2018-03-27T10:36:34.597Z,10.56
2018-03-27T10:37:34.598Z,10.34
2018-03-27T10:38:34.610Z,10.17
2018-03-27T10:39:34.754Z,10.22
2018-03-27T10:40:34.599Z,10.09
2018-03-27T10:41:34.595Z,9.96
2018-03-27T10:42:34.606Z,9.99
2018-03-27T10:43:34.597Z,9.71
2018-03-27T10:44:34.595Z,9.32
2018-03-27T10:45:34.600Z,9.01
2018-03-27T10:46:34.609Z,9.06
2018-03-27T10:47:34.602Z,9.12
2018-03-27T10:48:34.596Z,9.39
2018-03-27T10:49:34.673Z,9.67
2018-03-27T10:50:34.600Z,10.01
2018-03-27T10:51:34.656Z,10.15
2018-03-27T10:52:34.599Z,10.51
2018-03-27T10:53:34.602Z,10.71
2018-03-27T10:54:34.602Z,10.76
2018-03-27T10:55:34.599Z,10.91
2018-03-27T10:56:34.607Z,11.17
2018-03-27T10:57:34.599Z,11.13
2018-03-27T10:58:36.827Z,11.27
2018-03-27T10:59:34.660Z,11.24
2018-03-27T11:00:34.606Z,11.09
2018-03-27T11:01:34.612Z,11.17
2018-03-27T11:02:34.644Z,10.81
2018-03-27T11:03:34.598Z,11.07
2018-03-27T11:04:34.600Z,11.39
2018-03-27T11:05:34.607Z,11.70
2018-03-27T11:06:34.602Z,11.90
2018-03-27T11:07:34.630Z,11.62
2018-03-27T11:08:34.613Z,11.32
2018-03-27T11:09:34.638Z,10.91
2018-03-27T11:10:34.632Z,10.60
2018-03-27T11:11:34.607Z,10.22
2018-03-27T11:12:34.605Z,9.85
2018-03-27T11:13:34.607Z,9.63
2018-03-27T11:14:34.636Z,9.40
2018-03-27T11:15:34.624Z,9.15
2018-03-27T11:16:34.610Z,9.02
2018-03-27T11:17:34.634Z,8.99
2018-03-27T11:18:34.609Z,8.84
2018-03-27T11:19:34.608Z,8.63
2018-03-27T11:20:34.609Z,8.57
2018-03-27T11:21:34.613Z,8.57
2018-03-27T11:22:34.610Z,8.47
2018-03-27T11:23:34.619Z,8.37
2018-03-27T11:24:34.608Z,8.33
2018-03-27T11:25:34.609Z,8.33
2018-03-27T11:26:34.611Z,8.37
2018-03-27T11:27:34.603Z,8.22
2018-03-27T11:28:34.610Z,8.11
2018-03-27T11:29:34.603Z,8.15
2018-03-27T11:30:34.603Z,8.26
2018-03-27T11:31:34.602Z,8.32
2018-03-27T11:32:34.599Z,8.40
2018-03-27T11:33:34.598Z,8.54
2018-03-27T11:34:34.603Z,8.73
2018-03-27T11:35:34.599Z,8.78
2018-03-27T11:36:34.600Z,9.15
2018-03-27T11:37:34.598Z,9.23
2018-03-27T11:38:34.595Z,9.40
2018-03-27T11:39:34.592Z,9.46
2018-03-27T11:40:34.593Z,9.40
2018-03-27T11:41:34.592Z,9.34
2018-03-27T11:42:34.590Z,9.27
2018-03-27T11:43:34.589Z,9.32
2018-03-27T11:44:34.587Z,9.32
2018-03-27T11:45:34.619Z,9.13
2018-03-27T11:46:34.591Z,9.09
2018-03-27T11:47:34.586Z,8.88
2018-03-27T11:48:34.591Z,8.73
2018-03-27T11:49:34.664Z,8.71
2018-03-27T11:50:34.585Z,8.63
2018-03-27T11:51:34.580Z,8.53
2018-03-27T11:52:34.741Z,8.48
2018-03-27T11:53:34.582Z,8.54
2018-03-27T11:54:34.653Z,8.50
2018-03-27T11:55:34.576Z,8.47
2018-03-27T11:56:34.580Z,8.37
2018-03-27T11:57:34.580Z,8.39
2018-03-27T11:58:34.582Z,8.44
2018-03-27T11:59:34.571Z,8.40
2018-03-27T12:00:34.573Z,8.37
2018-03-27T12:01:34.605Z,8.32
2018-03-27T12:02:34.570Z,8.32
2018-03-27T12:03:34.567Z,8.40
2018-03-27T12:04:34.570Z,8.48
2018-03-27T12:05:34.563Z,8.81
2018-03-27T12:06:34.565Z,9.30
2018-03-27T12:07:34.563Z,9.45
2018-03-27T12:08:34.560Z,9.67
2018-03-27T12:09:34.562Z,9.40
2018-03-27T12:10:34.562Z,9.68
2018-03-27T12:11:34.558Z,9.93
2018-03-27T12:12:34.568Z,10.22
2018-03-27T12:13:34.558Z,10.39
2018-03-27T12:14:34.555Z,10.65
2018-03-27T12:15:34.552Z,10.65
2018-03-27T12:16:34.549Z,10.46
2018-03-27T12:17:34.555Z,10.30
2018-03-27T12:18:34.558Z,10.06
2018-03-27T12:19:34.549Z,9.68
2018-03-27T12:20:34.568Z,9.40
2018-03-27T12:21:34.555Z,9.30
2018-03-27T12:22:34.556Z,9.25
2018-03-27T12:23:34.547Z,9.12
2018-03-27T12:24:34.546Z,9.09
2018-03-27T12:25:34.548Z,9.10
2018-03-27T12:26:34.552Z,8.96
2018-03-27T12:27:34.547Z,8.96
2018-03-27T12:28:34.553Z,9.05
2018-03-27T12:29:34.544Z,9.13
2018-03-27T12:30:34.548Z,9.10
2018-03-27T12:31:34.540Z,9.27
2018-03-27T12:32:34.540Z,9.46
2018-03-27T12:33:34.547Z,9.99
2018-03-27T12:34:34.581Z,10.19
2018-03-27T12:35:34.542Z,10.18
2018-03-27T12:36:34.538Z,10.18
2018-03-27T12:37:34.536Z,10.25
2018-03-27T12:38:34.534Z,10.42
2018-03-27T12:39:34.537Z,10.66
2018-03-27T12:40:34.533Z,10.80
2018-03-27T12:41:34.560Z,11.09
2018-03-27T12:42:34.540Z,11.20
2018-03-27T12:43:34.535Z,11.02
2018-03-27T12:44:34.532Z,10.70
2018-03-27T12:45:34.535Z,10.74
2018-03-27T12:46:34.537Z,10.66
2018-03-27T12:47:34.529Z,10.77
2018-03-27T12:48:34.531Z,10.70
2018-03-27T12:49:34.540Z,10.42
2018-03-27T12:50:34.529Z,10.00
2018-03-27T12:51:34.527Z,9.96
2018-03-27T12:52:34.525Z,9.91
2018-03-27T12:53:34.529Z,9.89
2018-03-27T12:54:34.535Z,9.83
2018-03-27T12:55:34.547Z,9.82
2018-03-27T12:56:34.526Z,9.85
2018-03-27T12:57:34.527Z,9.70
2018-03-27T12:58:34.527Z,9.71
2018-03-27T12:59:34.523Z,9.67
2018-03-27T13:00:34.524Z,9.57
2018-03-27T13:01:34.533Z,9.53
2018-03-27T13:02:34.521Z,9.61
2018-03-27T13:03:34.531Z,9.58
2018-03-27T13:04:34.524Z,9.70
2018-03-27T13:05:34.579Z,9.66
2018-03-27T13:06:34.521Z,10.00
2018-03-27T13:07:34.520Z,10.14
2018-03-27T13:08:34.518Z,10.14
2018-03-27T13:09:34.524Z,10.24
2018-03-27T13:10:34.519Z,10.12
2018-03-27T13:11:34.524Z,10.10
2018-03-27T13:12:34.529Z,9.99
2018-03-27T13:13:34.517Z,10.09
2018-03-27T13:14:34.518Z,10.04
2018-03-27T13:15:34.516Z,10.10
2018-03-27T13:16:34.515Z,9.96
2018-03-27T13:17:34.517Z,9.81
2018-03-27T13:18:34.516Z,9.70
2018-03-27T13:19:34.516Z,9.56
2018-03-27T13:20:34.527Z,9.56